Belmar-Farmingdale, NJ

1:20 AM EDT on March 27, 2017 (GMT -0400)
Allaire

Weather History for KBLM - March, 2013

Change the Weather History Date:

Tuesday, March 19, 2013

  Actual Average Record
Temperature  
Mean Temperature 42 °F -  
Max Temperature 48 °F 46 °F 71 °F (2012)
Min Temperature 37 °F 32 °F 24 °F (2007)
Degree Days  
Heating Degree Days 22    
Moisture  
Dew Point 35 °F    
Average Humidity 82    
Maximum Humidity 100    
Minimum Humidity 36    
Precipitation  
Precipitation 0.27 in - - ()
Sea Level Pressure  
Sea Level Pressure 29.77 in    
Wind  
Wind Speed 14 mph (NNW)    
Max Wind Speed 24 mph    
Max Gust Speed 34 mph    
Visibility 7 miles    
Events      
Averages and records for this station are not official NWS values.
T = Trace of Precipitation, MM = Missing Value Source: NWS Daily Summary

Daily Weather History Graph

Daily Weather History Graph

Search for Another Location

Airport or City:

Trip Planner

Search our weather history database for the weather conditions in past years. The results will help you decide how hot, cold, wet, or windy it might be!

Date:

Astronomy

Mar. 19, 2013 Rise Set
Actual Time 7:01 AM EDT 7:07 PM EDT
Civil Twilight 6:34 AM EDT 7:34 PM EDT
Nautical Twilight 6:02 AM EDT 8:06 PM EDT
Astronomical Twilight 5:30 AM EDT 8:38 PM EDT
Moon 11:48 AM EDT (3/19) 1:53 AM EDT (3/19)
Length of Visible Light 13h 00m
Length of Day
12h 06m
Waxing Crescent, 49% of the Moon is Illuminated
Mar 19
Waxing Crescent
Mar 19
First Quarter
Mar 27
Full
Apr 3
Last Quarter
Apr 10
New

Hourly Weather History & Observations

Time (EDT) Temp. Windchill Dew Point Humidity Pressure Visibility Wind Dir Wind Speed Gust Speed Precip Events Conditions
12:15 AM 39.2 °F 30.8 °F 37.4 °F 93% 29.93 in 7.0 mi ENE 15.0 mph 26.5 mph 0.03 in   Overcast
12:35 AM 39.2 °F 29.6 °F 39.2 °F 100% 29.91 in 8.0 mi ENE 19.6 mph 26.5 mph 0.08 in   Overcast
12:55 AM 39.2 °F 30.5 °F 39.2 °F 100% 29.90 in 5.0 mi ENE 16.1 mph 32.2 mph 0.12 in   Overcast
1:15 AM 39.2 °F 29.8 °F 37.4 °F 93% 29.89 in 7.0 mi ENE 18.4 mph 26.5 mph 0.03 in   Overcast
1:35 AM 39.2 °F 29.6 °F 37.4 °F 93% 29.87 in 7.0 mi ENE 19.6 mph 26.5 mph 0.03 in   Overcast
1:55 AM 39.2 °F 28.7 °F 37.4 °F 93% 29.85 in 5.0 mi ENE 23.0 mph 34.5 mph 0.03 in   Overcast
2:15 AM 39.2 °F 29.0 °F 37.4 °F 93% 29.84 in 3.0 mi ENE 21.9 mph 31.1 mph 0.01 in   Overcast
2:35 AM 39.2 °F 32.0 °F 37.4 °F 93% 29.85 in 7.0 mi ENE 11.5 mph 19.6 mph 0.02 in   Overcast
2:55 AM 39.2 °F 30.5 °F 39.2 °F 100% 29.83 in 6.0 mi NE 16.1 mph 21.9 mph 0.03 in   Overcast
3:15 AM 39.2 °F 30.8 °F 39.2 °F 100% 29.82 in 5.0 mi NE 15.0 mph 21.9 mph 0.03 in   Overcast
3:35 AM 39.2 °F 30.8 °F 39.2 °F 100% 29.81 in 8.0 mi NE 15.0 mph 19.6 mph 0.04 in   Overcast
3:55 AM 39.2 °F 30.8 °F 39.2 °F 100% 29.79 in 7.0 mi NE 15.0 mph - 0.04 in   Overcast
4:15 AM 39.2 °F 31.6 °F 39.2 °F 100% 29.79 in 3.0 mi NE 12.7 mph 20.7 mph 0.01 in   Overcast
4:35 AM 39.2 °F 30.5 °F 39.2 °F 100% 29.78 in 4.0 mi NE 16.1 mph 20.7 mph 0.03 in   Overcast
4:55 AM 39.2 °F 31.2 °F 39.2 °F 100% 29.78 in 6.0 mi NE 13.8 mph 17.3 mph 0.04 in   Overcast
5:15 AM 39.2 °F 30.5 °F 39.2 °F 100% 29.77 in 6.0 mi NE 16.1 mph 20.7 mph N/A   Overcast
5:35 AM 39.2 °F 32.5 °F 39.2 °F 100% 29.77 in 9.0 mi NE 10.4 mph - 0.01 in   Overcast
5:55 AM 39.2 °F 32.5 °F 39.2 °F 100% 29.76 in 9.0 mi NE 10.4 mph 17.3 mph 0.01 in   Overcast
6:15 AM 39.2 °F 32.5 °F 39.2 °F 100% 29.75 in 7.0 mi NNE 10.4 mph - N/A   Overcast
6:35 AM 39.2 °F 32.5 °F 39.2 °F 100% 29.74 in 5.0 mi NE 10.4 mph - N/A   Overcast
6:55 AM 39.2 °F 33.0 °F 39.2 °F 100% 29.75 in 4.0 mi NE 9.2 mph 19.6 mph N/A   Overcast
7:15 AM 39.2 °F 32.0 °F 39.2 °F 100% 29.74 in 4.0 mi NE 11.5 mph 18.4 mph N/A   Overcast
7:35 AM 39.2 °F 31.2 °F 39.2 °F 100% 29.75 in 3.0 mi NNE 13.8 mph 19.6 mph N/A   Overcast
7:55 AM 39.2 °F 33.6 °F 39.2 °F 100% 29.75 in 3.0 mi NNE 8.1 mph - N/A   Overcast
8:15 AM 39.2 °F 32.5 °F 37.4 °F 93% 29.73 in 2.0 mi NNE 10.4 mph - N/A   Overcast
8:35 AM 39.2 °F 33.6 °F 37.4 °F 93% 29.75 in 1.5 mi North 8.1 mph - N/A   Overcast
8:55 AM 37.4 °F 30.3 °F 37.4 °F 100% 29.73 in 1.5 mi NE 10.4 mph - N/A   Overcast
9:15 AM 39.2 °F 33.6 °F 37.4 °F 93% 29.73 in 1.8 mi North 8.1 mph - N/A   Overcast
9:35 AM 39.2 °F 33.6 °F 37.4 °F 93% 29.72 in 2.0 mi NNE 8.1 mph - N/A   Overcast
9:55 AM 39.2 °F 34.2 °F 37.4 °F 93% 29.71 in 2.0 mi North 6.9 mph - N/A   Overcast
10:15 AM 39.2 °F 33.0 °F 39.2 °F 100% 29.73 in 1.8 mi NNW 9.2 mph - N/A   Overcast
10:35 AM 39.2 °F 32.5 °F 39.2 °F 100% 29.73 in 1.8 mi NNW 10.4 mph - N/A   Overcast
10:55 AM 39.2 °F 33.0 °F 39.2 °F 100% 29.75 in 2.5 mi NW 9.2 mph - N/A   Overcast
11:15 AM 39.2 °F 31.2 °F 37.4 °F 93% 29.75 in 2.5 mi NW 13.8 mph - N/A   Overcast
11:35 AM 37.4 °F 29.8 °F 37.4 °F 100% 29.75 in 2.5 mi NW 11.5 mph - N/A   Overcast
11:55 AM 37.4 °F 29.3 °F 35.6 °F 93% 29.76 in 3.0 mi NW 12.7 mph - N/A   Overcast
12:15 PM 37.4 °F 31.4 °F 35.6 °F 93% 29.71 in 3.0 mi North 8.1 mph - N/A   Overcast
12:35 PM 37.4 °F 29.3 °F 37.4 °F 100% 29.74 in 10.0 mi NNW 12.7 mph - N/A   Overcast
12:55 PM 39.2 °F 31.2 °F 37.4 °F 93% 29.73 in 10.0 mi North 13.8 mph - N/A   Overcast
1:15 PM 39.2 °F 31.6 °F 37.4 °F 93% 29.73 in 10.0 mi NW 12.7 mph - N/A   Overcast
1:35 PM 39.2 °F 31.2 °F 37.4 °F 93% 29.73 in 10.0 mi NNW 13.8 mph - N/A   Overcast
1:55 PM 39.2 °F 32.0 °F 37.4 °F 93% 29.71 in 10.0 mi NW 11.5 mph - N/A   Overcast
2:15 PM 39.2 °F 31.2 °F 37.4 °F 93% 29.71 in 10.0 mi NNW 13.8 mph - N/A   Overcast
2:35 PM 39.2 °F 32.0 °F 37.4 °F 93% 29.70 in 10.0 mi NW 11.5 mph - N/A   Overcast
2:55 PM 41.0 °F 35.8 °F 37.4 °F 87% 29.71 in 10.0 mi NW 8.1 mph - N/A   Overcast
3:15 PM 41.0 °F 34.7 °F 37.4 °F 87% 29.72 in 10.0 mi WNW 10.4 mph - N/A   Overcast
3:35 PM 42.8 °F 35.4 °F 39.2 °F 87% 29.72 in 10.0 mi NW 15.0 mph - N/A   Overcast
3:55 PM 44.6 °F 38.1 °F 35.6 °F 71% 29.72 in 10.0 mi NW 13.8 mph 23.0 mph N/A   Overcast
4:15 PM 46.4 °F 39.8 °F 37.4 °F 71% 29.72 in 10.0 mi WNW 16.1 mph 21.9 mph N/A   Scattered Clouds
4:35 PM 46.4 °F 39.8 °F 35.6 °F 66% 29.71 in 10.0 mi NW 16.1 mph 20.7 mph N/A   Scattered Clouds
4:55 PM 46.4 °F 40.7 °F 33.8 °F 62% 29.72 in 10.0 mi WNW 12.7 mph 19.6 mph N/A   Partly Cloudy
5:15 PM 48.2 °F - 33.8 °F 58% 29.72 in 10.0 mi WNW 12.7 mph - N/A   Clear
5:35 PM 48.2 °F - 30.2 °F 50% 29.71 in 10.0 mi NW 16.1 mph 21.9 mph N/A   Clear
5:55 PM 48.2 °F - 30.2 °F 50% 29.72 in 10.0 mi WNW 8.1 mph - N/A   Clear
6:15 PM 48.2 °F - 30.2 °F 50% 29.72 in 10.0 mi WNW 10.4 mph - N/A   Clear
6:35 PM 46.4 °F 43.5 °F 30.2 °F 53% 29.72 in 10.0 mi WNW 5.8 mph - N/A   Clear
6:55 PM 46.4 °F 43.5 °F 30.2 °F 53% 29.73 in 10.0 mi NW 5.8 mph - N/A   Clear
7:15 PM 44.6 °F 43.1 °F 30.2 °F 57% 29.74 in 10.0 mi West 3.5 mph - N/A   Mostly Cloudy
7:35 PM 46.4 °F 41.9 °F 30.2 °F 53% 29.73 in 10.0 mi West 9.2 mph - N/A   Mostly Cloudy
8:15 PM 44.6 °F 39.7 °F 30.2 °F 57% 29.74 in 10.0 mi WNW 9.2 mph - N/A   Clear
8:35 PM 44.6 °F 40.2 °F 30.2 °F 57% 29.75 in 10.0 mi WNW 8.1 mph - N/A   Clear
8:55 PM 44.6 °F 42.2 °F 30.2 °F 57% 29.76 in 10.0 mi West 4.6 mph - N/A   Clear
9:15 PM 42.8 °F 40.1 °F 30.2 °F 61% 29.76 in 10.0 mi West 4.6 mph - N/A   Clear
9:35 PM 42.8 °F 40.1 °F 30.2 °F 61% 29.77 in 10.0 mi WNW 4.6 mph - N/A   Scattered Clouds
9:55 PM 42.8 °F 37.5 °F 28.4 °F 57% 29.79 in 10.0 mi WNW 9.2 mph - N/A   Scattered Clouds
10:15 PM 42.8 °F 35.4 °F 28.4 °F 57% 29.79 in 10.0 mi NW 15.0 mph 18.4 mph N/A   Scattered Clouds
10:35 PM 42.8 °F 33.3 °F 23.0 °F 46% 29.81 in 10.0 mi WNW 24.2 mph 33.4 mph N/A   Partly Cloudy
10:55 PM 42.8 °F 35.8 °F 17.6 °F 36% 29.82 in 10.0 mi WNW 13.8 mph 20.7 mph N/A   Partly Cloudy
11:15 PM 41.0 °F 33.1 °F 17.6 °F 39% 29.83 in 10.0 mi WNW 15.0 mph 32.2 mph N/A   Clear
11:35 PM 39.2 °F 31.2 °F 17.6 °F 42% 29.83 in 10.0 mi WNW 13.8 mph 25.3 mph N/A   Clear
11:55 PM 39.2 °F - 15.8 °F 39% 29.84 in 10.0 mi North - - N/A   Partly Cloudy